Time;durP1;ratioP1;P1;durP2;ratioP2;P2;SDS_P1;SDS_P2;PMS_P1;PMS_P2;Temp;Humidity;BMP_temperature;BMP_pressure;BME280_temperature;BME280_humidity;BME280_pressure;Samples;Min_cycle;Max_cycle;Signal;HPM_P1;HPM_P2
2020/12/29 00:00:52;;;;;;;;;;;2.40;99.90;;;;;;5007664;28;19922;-63
2020/12/29 00:03:18;;;;;;;;;;;2.50;99.90;;;;;;5007550;28;19918;-63
2020/12/29 00:05:45;;;;;;;;;;;2.40;99.90;;;;;;5007396;28;20005;-63
2020/12/29 00:08:12;;;;;;;;;;;2.40;99.90;;;;;;5007624;28;19922;-62
2020/12/29 00:10:37;;;;;;;;;;;2.50;99.90;;;;;;5007319;28;19933;-62
2020/12/29 00:13:03;;;;;;;;;;;2.50;99.90;;;;;;5007203;28;19921;-62
2020/12/29 00:15:29;;;;;;;;;;;2.40;99.90;;;;;;5007206;28;20012;-62
2020/12/29 00:17:54;;;;;;;;;;;2.40;99.90;;;;;;5007160;28;19945;-62
2020/12/29 00:20:20;;;;;;;;;;;2.40;99.90;;;;;;5007319;28;19922;-63
2020/12/29 00:22:46;;;;;;;;;;;2.40;99.90;;;;;;5007431;28;19922;-62
2020/12/29 00:25:13;;;;;;;;;;;2.40;99.90;;;;;;5007045;28;19945;-63
2020/12/29 00:27:39;;;;;;;;;;;2.40;99.90;;;;;;5006994;28;20384;-63
2020/12/29 00:30:05;;;;;;;;;;;2.40;99.90;;;;;;5022317;28;19989;-62
2020/12/29 00:32:30;;;;;;;;;;;2.40;99.90;;;;;;5007282;28;19928;-63
2020/12/29 00:34:56;;;;;;;;;;;2.30;99.90;;;;;;5007138;28;19985;-63
2020/12/29 00:37:22;;;;;;;;;;;2.40;99.90;;;;;;5007183;28;19917;-63
2020/12/29 00:39:47;;;;;;;;;;;2.40;99.90;;;;;;5006938;28;19941;-63
2020/12/29 00:42:13;;;;;;;;;;;2.40;99.90;;;;;;5006858;28;19953;-62
2020/12/29 00:44:39;;;;;;;;;;;2.30;99.90;;;;;;5006526;28;19929;-63
2020/12/29 00:47:04;;;;;;;;;;;2.40;99.90;;;;;;5007026;28;19945;-63
2020/12/29 00:49:30;;;;;;;;;;;2.40;99.90;;;;;;5007018;28;19965;-62
2020/12/29 00:51:56;;;;;;;;;;;2.40;99.90;;;;;;5011396;28;20003;-62
2020/12/29 00:54:21;;;;;;;;;;;2.30;99.90;;;;;;5013234;28;19968;-62
2020/12/29 00:56:47;;;;;;;;;;;2.30;99.90;;;;;;5013308;28;20336;-62
2020/12/29 00:59:13;;;;;;;;;;;2.30;99.90;;;;;;5013138;28;19968;-63
2020/12/29 01:01:39;;;;;;;;;;;2.30;99.90;;;;;;5013356;28;19922;-63
2020/12/29 01:04:05;;;;;;;;;;;2.30;99.90;;;;;;5013306;28;19929;-62
2020/12/29 01:06:31;;;;;;;;;;;2.30;99.90;;;;;;5013194;28;19921;-62
2020/12/29 01:08:57;;;;;;;;;;;2.30;99.90;;;;;;5013280;28;19925;-63
2020/12/29 01:11:23;;;;;;;;;;;2.30;99.90;;;;;;5013238;28;19989;-62
2020/12/29 01:13:48;;;;;;;;;;;2.30;99.90;;;;;;5013139;28;20016;-62
2020/12/29 01:16:14;;;;;;;;;;;2.40;99.90;;;;;;5013242;28;19929;-62
2020/12/29 01:18:40;;;;;;;;;;;2.30;99.90;;;;;;5013277;28;19926;-63
2020/12/29 01:21:08;;;;;;;;;;;2.30;99.90;;;;;;5013060;28;19922;-63
2020/12/29 01:23:34;;;;;;;;;;;2.30;99.90;;;;;;5013162;28;19928;-62
2020/12/29 01:26:00;;;;;;;;;;;2.40;99.90;;;;;;5012975;28;19945;-63
2020/12/29 01:28:26;;;;;;;;;;;2.30;99.90;;;;;;5013057;28;20008;-63
2020/12/29 01:30:51;;;;;;;;;;;2.40;99.90;;;;;;5013104;28;19922;-62
2020/12/29 01:33:17;;;;;;;;;;;2.40;99.90;;;;;;5013315;28;19926;-63
2020/12/29 01:35:43;;;;;;;;;;;2.40;99.90;;;;;;5013068;28;20008;-63
2020/12/29 01:38:08;;;;;;;;;;;2.30;99.90;;;;;;5012968;28;20009;-62
2020/12/29 01:40:35;;;;;;;;;;;2.30;99.90;;;;;;5012882;28;19921;-62
2020/12/29 01:43:02;;;;;;;;;;;2.30;99.90;;;;;;5012855;28;19926;-62
2020/12/29 01:45:27;;;;;;;;;;;2.30;99.90;;;;;;5012747;28;19921;-62
2020/12/29 01:47:53;;;;;;;;;;;2.40;99.90;;;;;;5012892;28;19926;-63
2020/12/29 01:50:20;;;;;;;;;;;2.30;99.90;;;;;;5012772;28;19921;-60
2020/12/29 01:52:47;;;;;;;;;;;2.40;99.90;;;;;;5012705;28;19922;-63
2020/12/29 01:55:12;;;;;;;;;;;2.30;99.90;;;;;;5012813;28;19928;-62
2020/12/29 01:57:38;;;;;;;;;;;2.30;99.90;;;;;;5012622;28;19922;-63
2020/12/29 02:00:07;;;;;;;;;;;2.30;99.90;;;;;;5012821;28;19930;-63
2020/12/29 02:02:33;;;;;;;;;;;2.30;99.90;;;;;;5010550;28;20368;-63
2020/12/29 02:04:59;;;;;;;;;;;2.30;99.90;;;;;;5009609;28;19956;-63
2020/12/29 02:07:25;;;;;;;;;;;2.30;99.90;;;;;;5009610;28;19922;-63
2020/12/29 02:09:51;;;;;;;;;;;2.30;99.90;;;;;;5009538;28;19922;-61
2020/12/29 02:12:20;;;;;;;;;;;2.30;99.90;;;;;;5009481;28;20020;-61
2020/12/29 02:14:46;;;;;;;;;;;2.30;99.90;;;;;;5009552;28;19922;-61
2020/12/29 02:17:12;;;;;;;;;;;2.30;99.90;;;;;;5009240;28;19944;-62
2020/12/29 02:19:37;;;;;;;;;;;2.30;99.90;;;;;;5009380;28;19944;-61
2020/12/29 02:22:03;;;;;;;;;;;2.30;99.90;;;;;;5009262;28;20357;-61
2020/12/29 02:24:29;;;;;;;;;;;2.30;99.90;;;;;;5009257;28;19952;-61
2020/12/29 02:26:54;;;;;;;;;;;2.30;99.90;;;;;;5009108;28;19921;-61
2020/12/29 02:29:20;;;;;;;;;;;2.30;99.90;;;;;;5009302;28;19949;-61
2020/12/29 02:31:46;;;;;;;;;;;2.30;99.90;;;;;;5009341;28;19922;-60
2020/12/29 02:34:11;;;;;;;;;;;2.30;99.90;;;;;;5009078;28;19922;-60
2020/12/29 02:36:37;;;;;;;;;;;2.30;99.90;;;;;;5008949;28;19972;-60
2020/12/29 02:39:02;;;;;;;;;;;2.30;99.90;;;;;;5008990;28;19922;-61
2020/12/29 02:41:28;;;;;;;;;;;2.30;99.90;;;;;;5008992;28;19993;-61
2020/12/29 02:43:53;;;;;;;;;;;2.30;99.90;;;;;;5008842;28;19945;-61
2020/12/29 02:46:19;;;;;;;;;;;2.30;99.90;;;;;;5008964;28;19956;-61
2020/12/29 02:48:45;;;;;;;;;;;2.30;99.90;;;;;;5008713;28;19921;-60
2020/12/29 02:51:16;;;;;;;;;;;2.20;99.90;;;;;;5008721;28;19922;-60
2020/12/29 02:53:42;;;;;;;;;;;2.20;99.90;;;;;;5008550;28;19922;-61
2020/12/29 02:56:07;;;;;;;;;;;2.20;99.90;;;;;;5008860;28;19922;-60
2020/12/29 02:58:33;;;;;;;;;;;2.20;99.90;;;;;;5008738;28;19968;-60
2020/12/29 03:00:59;;;;;;;;;;;2.20;99.90;;;;;;5008865;28;19917;-61
2020/12/29 03:03:24;;;;;;;;;;;2.10;99.90;;;;;;5008571;28;19933;-61
2020/12/29 03:05:50;;;;;;;;;;;2.10;99.90;;;;;;5008508;28;19928;-61
2020/12/29 03:08:15;;;;;;;;;;;2.10;99.90;;;;;;5008496;28;19928;-61
2020/12/29 03:10:42;;;;;;;;;;;2.10;99.90;;;;;;5008411;28;19928;-61
2020/12/29 03:13:08;;;;;;;;;;;2.10;99.90;;;;;;5008402;28;19921;-60
2020/12/29 03:15:33;;;;;;;;;;;2.10;99.90;;;;;;5008108;28;19949;-61
2020/12/29 03:17:59;;;;;;;;;;;2.00;99.90;;;;;;5008222;28;19922;-61
2020/12/29 03:20:24;;;;;;;;;;;2.00;99.90;;;;;;5008290;28;19922;-61
2020/12/29 03:22:50;;;;;;;;;;;2.00;99.90;;;;;;5008205;28;19928;-61
2020/12/29 03:25:16;;;;;;;;;;;2.00;99.90;;;;;;5008037;28;19928;-61
2020/12/29 03:27:41;;;;;;;;;;;1.90;99.90;;;;;;5008196;28;19929;-61
2020/12/29 03:30:07;;;;;;;;;;;2.00;99.90;;;;;;5008312;28;19926;-61
2020/12/29 03:32:33;;;;;;;;;;;2.00;99.90;;;;;;5008107;28;19921;-61
2020/12/29 03:34:58;;;;;;;;;;;2.00;99.90;;;;;;5007960;28;19922;-61
2020/12/29 03:37:24;;;;;;;;;;;2.00;99.90;;;;;;5007980;28;19922;-61
2020/12/29 03:39:50;;;;;;;;;;;2.00;99.90;;;;;;5007942;28;19922;-61
2020/12/29 03:42:16;;;;;;;;;;;2.00;99.90;;;;;;5007688;28;19948;-61
2020/12/29 03:44:41;;;;;;;;;;;1.90;99.90;;;;;;5007989;28;19922;-61
2020/12/29 03:47:07;;;;;;;;;;;2.00;99.90;;;;;;5007693;28;19925;-61
2020/12/29 03:49:33;;;;;;;;;;;2.00;99.90;;;;;;5007745;28;19976;-61
2020/12/29 03:51:58;;;;;;;;;;;2.00;99.90;;;;;;5007709;28;19941;-61
2020/12/29 03:54:24;;;;;;;;;;;2.10;99.90;;;;;;5007483;28;19922;-62
2020/12/29 03:56:49;;;;;;;;;;;2.10;99.90;;;;;;5007535;28;19960;-61
2020/12/29 03:59:15;;;;;;;;;;;2.10;99.90;;;;;;5007670;28;19921;-61
2020/12/29 04:01:41;;;;;;;;;;;2.10;99.90;;;;;;5022564;28;19976;-62
2020/12/29 04:04:08;;;;;;;;;;;2.10;99.90;;;;;;5007345;28;19932;-61
2020/12/29 04:06:33;;;;;;;;;;;2.10;99.90;;;;;;5007276;28;19958;-61
2020/12/29 04:08:59;;;;;;;;;;;2.10;99.90;;;;;;5007429;28;20336;-62
2020/12/29 04:11:25;;;;;;;;;;;2.10;99.90;;;;;;5007236;28;19928;-62
2020/12/29 04:13:51;;;;;;;;;;;2.10;99.90;;;;;;5007506;28;19922;-61
2020/12/29 04:16:19;;;;;;;;;;;2.00;99.90;;;;;;5007309;28;20305;-62
2020/12/29 04:18:44;;;;;;;;;;;2.00;99.90;;;;;;5007316;28;19977;-61
2020/12/29 04:21:11;;;;;;;;;;;2.10;99.90;;;;;;5007223;28;19922;-62
2020/12/29 04:23:36;;;;;;;;;;;2.00;99.90;;;;;;5007116;28;19933;-61
2020/12/29 04:26:02;;;;;;;;;;;2.10;99.90;;;;;;5006315;28;19921;-61
2020/12/29 04:28:28;;;;;;;;;;;2.00;99.90;;;;;;5007319;28;20274;-61
2020/12/29 04:30:53;;;;;;;;;;;2.00;99.90;;;;;;5007116;28;19931;-61
2020/12/29 04:33:19;;;;;;;;;;;2.00;99.90;;;;;;5006969;28;19964;-61
2020/12/29 04:35:45;;;;;;;;;;;2.00;99.90;;;;;;5006836;28;19922;-61
2020/12/29 04:38:10;;;;;;;;;;;2.00;99.90;;;;;;5007009;28;19929;-61
2020/12/29 04:40:36;;;;;;;;;;;1.90;99.90;;;;;;5006924;28;20329;-62
2020/12/29 04:43:01;;;;;;;;;;;2.00;99.90;;;;;;5006872;28;20378;-62
2020/12/29 04:45:27;;;;;;;;;;;2.00;99.90;;;;;;5006726;28;19926;-62
2020/12/29 04:47:53;;;;;;;;;;;2.00;99.90;;;;;;5006807;28;19929;-62
2020/12/29 04:50:19;;;;;;;;;;;2.00;99.90;;;;;;5006982;28;19968;-62
2020/12/29 04:52:45;;;;;;;;;;;2.00;99.90;;;;;;5006734;28;19925;-62
2020/12/29 04:55:11;;;;;;;;;;;2.00;99.90;;;;;;5006724;28;19929;-62
2020/12/29 04:57:37;;;;;;;;;;;2.00;99.90;;;;;;5006850;28;19930;-62
2020/12/29 05:00:06;;;;;;;;;;;2.00;99.90;;;;;;5006748;28;19945;-62
2020/12/29 05:02:32;;;;;;;;;;;1.90;99.90;;;;;;5006653;28;19928;-62
2020/12/29 05:04:57;;;;;;;;;;;1.90;99.90;;;;;;5006610;28;19922;-62
2020/12/29 05:07:26;;;;;;;;;;;1.90;99.90;;;;;;5006729;28;19922;-62
2020/12/29 05:09:51;;;;;;;;;;;1.90;99.90;;;;;;5006651;28;19929;-62
2020/12/29 05:12:17;;;;;;;;;;;1.90;99.90;;;;;;5006810;28;19928;-62
2020/12/29 05:14:44;;;;;;;;;;;1.80;99.90;;;;;;5006586;28;19985;-62
2020/12/29 05:17:10;;;;;;;;;;;1.80;99.90;;;;;;5006561;28;19922;-62
2020/12/29 05:19:36;;;;;;;;;;;1.80;99.90;;;;;;5006640;28;19945;-62
2020/12/29 05:22:02;;;;;;;;;;;1.80;99.90;;;;;;5006454;28;19945;-62
2020/12/29 05:24:27;;;;;;;;;;;1.80;99.90;;;;;;5006467;28;19926;-63
2020/12/29 05:26:54;;;;;;;;;;;1.70;99.90;;;;;;5006405;28;19929;-62
2020/12/29 05:29:21;;;;;;;;;;;1.70;99.90;;;;;;5006523;28;19922;-62
2020/12/29 05:31:47;;;;;;;;;;;1.70;99.90;;;;;;5006526;28;19956;-62
2020/12/29 05:34:22;;;;;;;;;;;1.70;99.90;;;;;;5006488;28;19968;-62
2020/12/29 05:36:48;;;;;;;;;;;1.70;99.90;;;;;;5006880;28;19964;-62
2020/12/29 05:39:14;;;;;;;;;;;1.70;99.90;;;;;;5010340;28;19917;-61
2020/12/29 05:41:45;;;;;;;;;;;1.70;99.90;;;;;;5010142;28;19929;-61
2020/12/29 05:44:13;;;;;;;;;;;1.70;99.90;;;;;;5009995;28;20386;-60
2020/12/29 05:46:39;;;;;;;;;;;1.70;99.90;;;;;;5009930;28;20342;-60
2020/12/29 05:49:05;;;;;;;;;;;1.70;99.90;;;;;;5010003;28;19922;-61
2020/12/29 05:51:32;;;;;;;;;;;1.50;99.90;;;;;;5009944;28;19928;-61
2020/12/29 05:54:09;;;;;;;;;;;1.50;99.90;;;;;;5009509;28;20431;-61
2020/12/29 05:56:34;;;;;;;;;;;1.50;99.90;;;;;;5009744;28;19929;-61
2020/12/29 05:59:02;;;;;;;;;;;1.50;99.90;;;;;;5009909;28;19921;-61
2020/12/29 06:01:38;;;;;;;;;;;1.60;99.90;;;;;;5009817;28;19922;-61
2020/12/29 06:04:04;;;;;;;;;;;1.50;99.90;;;;;;5009600;28;19921;-61
2020/12/29 06:06:34;;;;;;;;;;;1.50;99.90;;;;;;5009612;28;19928;-61
2020/12/29 06:09:00;;;;;;;;;;;1.50;99.90;;;;;;5009796;28;19926;-61
2020/12/29 06:11:33;;;;;;;;;;;1.50;99.90;;;;;;5009625;28;20582;-61
2020/12/29 06:14:00;;;;;;;;;;;1.40;99.90;;;;;;5009523;28;19922;-61
2020/12/29 06:16:30;;;;;;;;;;;1.40;99.90;;;;;;5009462;28;19953;-61
2020/12/29 06:18:58;;;;;;;;;;;1.40;99.90;;;;;;5009294;28;19946;-61
2020/12/29 06:21:26;;;;;;;;;;;1.30;99.90;;;;;;5009635;28;19929;-61
2020/12/29 06:23:54;;;;;;;;;;;1.30;99.90;;;;;;5009484;28;19929;-61
2020/12/29 06:26:20;;;;;;;;;;;1.30;99.90;;;;;;5009294;28;20354;-62
2020/12/29 06:28:47;;;;;;;;;;;1.20;99.90;;;;;;5009229;28;19922;-62
2020/12/29 06:31:17;;;;;;;;;;;1.30;99.90;;;;;;5009395;28;19922;-62
2020/12/29 06:33:43;;;;;;;;;;;1.30;99.90;;;;;;5009011;28;19924;-61
2020/12/29 06:36:10;;;;;;;;;;;1.30;99.90;;;;;;5009298;28;19921;-61
2020/12/29 06:38:38;;;;;;;;;;;1.30;99.90;;;;;;5009182;28;19918;-61
2020/12/29 06:41:05;;;;;;;;;;;1.30;99.90;;;;;;5009059;28;20293;-61
2020/12/29 06:43:32;;;;;;;;;;;1.40;99.90;;;;;;5008983;28;19925;-62
2020/12/29 06:46:11;;;;;;;;;;;1.40;99.90;;;;;;5008955;28;20389;-62
2020/12/29 06:48:37;;;;;;;;;;;1.30;99.90;;;;;;5008314;28;19929;-62
2020/12/29 06:51:08;;;;;;;;;;;1.30;99.90;;;;;;5008874;28;19917;-62
2020/12/29 06:53:34;;;;;;;;;;;1.40;99.90;;;;;;5008590;28;19928;-61
2020/12/29 06:56:00;;;;;;;;;;;1.30;99.90;;;;;;5008695;28;19941;-62
2020/12/29 06:58:32;;;;;;;;;;;1.30;99.90;;;;;;5008652;28;19929;-62
2020/12/29 07:01:16;;;;;;;;;;;1.30;99.90;;;;;;5008791;28;19926;-63
2020/12/29 07:03:42;;;;;;;;;;;1.30;99.90;;;;;;5008485;28;19922;-63
2020/12/29 07:06:08;;;;;;;;;;;1.30;99.90;;;;;;5008710;28;19928;-62
2020/12/29 07:08:36;;;;;;;;;;;1.30;99.90;;;;;;5008488;28;19922;-62
2020/12/29 07:11:18;;;;;;;;;;;1.30;99.90;;;;;;5008412;28;19922;-62
2020/12/29 07:13:51;;;;;;;;;;;1.30;99.90;;;;;;5008439;28;19921;-62
2020/12/29 07:16:24;;;;;;;;;;;1.30;99.90;;;;;;5008444;28;19925;-62
2020/12/29 07:18:52;;;;;;;;;;;1.30;99.90;;;;;;5008354;28;20300;-61
2020/12/29 07:21:22;;;;;;;;;;;1.40;99.90;;;;;;5008393;28;19922;-61
2020/12/29 07:23:50;;;;;;;;;;;1.30;99.90;;;;;;5008176;28;19921;-61
2020/12/29 07:26:17;;;;;;;;;;;1.30;99.90;;;;;;5007930;28;19921;-61
2020/12/29 07:28:42;;;;;;;;;;;1.30;99.90;;;;;;5008030;28;20024;-61
2020/12/29 07:31:10;;;;;;;;;;;1.30;99.90;;;;;;5008269;28;19918;-61
2020/12/29 07:33:41;;;;;;;;;;;1.30;99.90;;;;;;5039534;28;19942;-61
2020/12/29 07:36:08;;;;;;;;;;;1.40;99.90;;;;;;5007860;28;19922;-61
2020/12/29 07:38:36;;;;;;;;;;;1.40;99.90;;;;;;5007757;28;19950;-61
2020/12/29 07:41:02;;;;;;;;;;;1.30;99.90;;;;;;5008189;28;19922;-61
2020/12/29 07:43:27;;;;;;;;;;;1.40;99.90;;;;;;5007740;28;19917;-61
2020/12/29 07:45:53;;;;;;;;;;;1.40;99.90;;;;;;5007599;28;19925;-61
2020/12/29 07:48:19;;;;;;;;;;;1.40;99.90;;;;;;5007609;28;19922;-61
2020/12/29 07:50:44;;;;;;;;;;;1.50;99.90;;;;;;5007548;28;19921;-61
2020/12/29 07:53:11;;;;;;;;;;;1.40;99.90;;;;;;5007311;28;19921;-62
2020/12/29 07:55:40;;;;;;;;;;;1.40;99.90;;;;;;5007825;28;20008;-61
2020/12/29 07:58:06;;;;;;;;;;;1.50;99.90;;;;;;5007487;28;19922;-61
2020/12/29 08:00:33;;;;;;;;;;;1.50;99.90;;;;;;5006640;28;19922;-61
2020/12/29 08:02:58;;;;;;;;;;;1.50;99.90;;;;;;5007370;28;19922;-61
2020/12/29 08:05:26;;;;;;;;;;;1.50;99.90;;;;;;5007213;28;20022;-61
2020/12/29 08:07:58;;;;;;;;;;;1.50;99.90;;;;;;5007330;28;19926;-62
2020/12/29 08:10:26;;;;;;;;;;;1.60;99.90;;;;;;5007291;28;19926;-61
2020/12/29 08:12:55;;;;;;;;;;;1.60;99.90;;;;;;5007339;28;19922;-61
2020/12/29 08:15:30;;;;;;;;;;;1.60;99.90;;;;;;5007260;28;19918;-61
2020/12/29 08:18:09;;;;;;;;;;;1.60;99.90;;;;;;5007166;28;19925;-62
2020/12/29 08:20:47;;;;;;;;;;;1.60;99.90;;;;;;5007343;28;19921;-62
2020/12/29 08:23:13;;;;;;;;;;;1.50;99.90;;;;;;5006990;28;19968;-62
2020/12/29 08:25:39;;;;;;;;;;;1.60;99.90;;;;;;5006885;28;19922;-62
2020/12/29 08:28:05;;;;;;;;;;;1.60;99.90;;;;;;5007407;28;19922;-62
2020/12/29 08:30:31;;;;;;;;;;;1.60;99.90;;;;;;5007031;28;20300;-62
2020/12/29 08:32:58;;;;;;;;;;;1.60;99.90;;;;;;5006833;28;19968;-62
2020/12/29 08:35:24;;;;;;;;;;;1.60;99.90;;;;;;5007110;28;19922;-62
2020/12/29 08:38:04;;;;;;;;;;;1.60;99.90;;;;;;5006968;28;19985;-62
2020/12/29 08:40:35;;;;;;;;;;;1.60;99.90;;;;;;5006897;28;19922;-62
2020/12/29 08:43:01;;;;;;;;;;;1.60;99.90;;;;;;5006786;28;19925;-62
2020/12/29 08:45:28;;;;;;;;;;;1.60;99.90;;;;;;5006948;28;19925;-61
2020/12/29 08:47:55;;;;;;;;;;;1.70;99.90;;;;;;5006767;28;19925;-61
2020/12/29 08:50:25;;;;;;;;;;;1.70;99.90;;;;;;5006745;28;19922;-62
2020/12/29 08:52:52;;;;;;;;;;;1.70;99.90;;;;;;5006677;28;19940;-62
2020/12/29 08:55:28;;;;;;;;;;;1.60;99.90;;;;;;5006689;28;19922;-62
2020/12/29 08:57:57;;;;;;;;;;;1.60;99.90;;;;;;5006611;28;20057;-62
2020/12/29 09:00:23;;;;;;;;;;;1.60;99.90;;;;;;5006860;28;19929;-62
2020/12/29 09:02:48;;;;;;;;;;;1.70;99.90;;;;;;5006595;28;20041;-62
2020/12/29 09:05:19;;;;;;;;;;;1.70;99.90;;;;;;5006610;28;19934;-62
2020/12/29 09:07:45;;;;;;;;;;;1.60;99.90;;;;;;5006677;28;19945;-62
2020/12/29 09:10:12;;;;;;;;;;;1.60;99.90;;;;;;5006644;28;19922;-62
2020/12/29 09:12:37;;;;;;;;;;;1.60;99.90;;;;;;5008317;28;20297;-62
2020/12/29 09:15:07;;;;;;;;;;;1.60;99.90;;;;;;5010354;28;19922;-62
2020/12/29 09:17:34;;;;;;;;;;;1.60;99.90;;;;;;5010616;28;19989;-62
2020/12/29 09:20:10;;;;;;;;;;;1.60;99.90;;;;;;5010436;28;19922;-62
2020/12/29 09:22:48;;;;;;;;;;;1.60;99.90;;;;;;5010411;28;19922;-62
2020/12/29 09:25:24;;;;;;;;;;;1.50;99.90;;;;;;5010250;28;19952;-62
2020/12/29 09:27:50;;;;;;;;;;;1.50;99.90;;;;;;5010419;28;19929;-64
2020/12/29 09:30:16;;;;;;;;;;;1.50;99.90;;;;;;5010314;28;19918;-64
2020/12/29 09:32:42;;;;;;;;;;;1.50;99.90;;;;;;5010393;28;19949;-64
2020/12/29 09:35:26;;;;;;;;;;;1.50;99.90;;;;;;5010185;28;19969;-63
2020/12/29 09:37:56;;;;;;;;;;;1.40;99.90;;;;;;5010331;28;20368;-62
2020/12/29 09:40:22;;;;;;;;;;;1.40;99.90;;;;;;5009997;28;19925;-63
2020/12/29 09:42:51;;;;;;;;;;;1.40;99.90;;;;;;5009985;28;19921;-63
2020/12/29 09:45:17;;;;;;;;;;;1.50;99.90;;;;;;5009746;28;20055;-62
2020/12/29 09:47:43;;;;;;;;;;;1.50;99.90;;;;;;5009572;28;19925;-62
2020/12/29 09:50:09;;;;;;;;;;;1.50;99.90;;;;;;5009711;28;19922;-62
2020/12/29 09:52:34;;;;;;;;;;;1.50;99.90;;;;;;5009842;28;19960;-62
2020/12/29 09:55:01;;;;;;;;;;;1.50;99.90;;;;;;5009447;28;20262;-62
2020/12/29 09:57:28;;;;;;;;;;;1.50;99.90;;;;;;5009717;28;19972;-62
2020/12/29 09:59:53;;;;;;;;;;;1.60;99.90;;;;;;5009738;28;19922;-62
2020/12/29 10:02:20;;;;;;;;;;;1.60;99.90;;;;;;5009618;28;19929;-63
2020/12/29 10:04:46;;;;;;;;;;;1.60;99.90;;;;;;5009501;28;19922;-62
2020/12/29 10:07:11;;;;;;;;;;;1.70;99.90;;;;;;5009637;28;20392;-61
2020/12/29 10:09:37;;;;;;;;;;;1.70;99.90;;;;;;5009500;28;19926;-61
2020/12/29 10:12:03;;;;;;;;;;;1.70;99.90;;;;;;5009630;28;19971;-61
2020/12/29 10:14:28;;;;;;;;;;;1.70;99.90;;;;;;5009288;28;19933;-62
2020/12/29 10:16:54;;;;;;;;;;;1.70;99.90;;;;;;5009492;28;19961;-62
2020/12/29 10:19:19;;;;;;;;;;;1.80;99.90;;;;;;5009257;28;19922;-62
2020/12/29 10:21:52;;;;;;;;;;;1.80;99.90;;;;;;5009238;28;19921;-61
2020/12/29 10:24:18;;;;;;;;;;;1.80;99.90;;;;;;5008080;28;19921;-61
2020/12/29 10:26:44;;;;;;;;;;;1.90;99.90;;;;;;5009247;28;19944;-61
2020/12/29 10:29:09;;;;;;;;;;;1.80;99.90;;;;;;5009248;28;19929;-61
2020/12/29 10:31:35;;;;;;;;;;;1.90;99.90;;;;;;5009273;28;19988;-61
2020/12/29 10:34:02;;;;;;;;;;;1.90;99.90;;;;;;5008853;28;19928;-61
2020/12/29 10:36:34;;;;;;;;;;;1.90;99.90;;;;;;5009226;28;19928;-62
2020/12/29 10:39:00;;;;;;;;;;;1.90;99.90;;;;;;5009101;28;19918;-62
2020/12/29 10:41:29;;;;;;;;;;;1.90;99.90;;;;;;5008977;28;19921;-62
2020/12/29 10:43:55;;;;;;;;;;;1.90;99.90;;;;;;5008936;28;20289;-62
2020/12/29 10:46:21;;;;;;;;;;;2.00;99.90;;;;;;5008846;28;19928;-62
2020/12/29 10:48:47;;;;;;;;;;;2.00;99.90;;;;;;5007482;28;19933;-62
2020/12/29 10:51:22;;;;;;;;;;;2.00;99.90;;;;;;5008771;28;19945;-62
2020/12/29 10:53:48;;;;;;;;;;;2.00;99.90;;;;;;5008515;28;20408;-63
2020/12/29 10:56:14;;;;;;;;;;;2.00;99.90;;;;;;5008503;28;19944;-63
2020/12/29 10:58:43;;;;;;;;;;;2.00;99.90;;;;;;5008473;28;19921;-62
2020/12/29 11:01:09;;;;;;;;;;;2.00;99.90;;;;;;5008511;28;19993;-62
2020/12/29 11:03:35;;;;;;;;;;;2.00;99.90;;;;;;5008375;28;19933;-62
2020/12/29 11:06:00;;;;;;;;;;;2.00;99.90;;;;;;5008288;28;19922;-62
2020/12/29 11:08:26;;;;;;;;;;;2.00;99.90;;;;;;5008554;28;19934;-61
2020/12/29 11:10:52;;;;;;;;;;;2.10;99.90;;;;;;5008418;28;19922;-61
2020/12/29 11:13:18;;;;;;;;;;;2.10;99.90;;;;;;5008253;28;19964;-62
2020/12/29 11:15:44;;;;;;;;;;;2.00;99.90;;;;;;5008432;28;19922;-62
2020/12/29 11:18:09;;;;;;;;;;;2.10;99.90;;;;;;5008162;28;20357;-62
2020/12/29 11:20:35;;;;;;;;;;;2.00;99.90;;;;;;5008588;28;19929;-63
2020/12/29 11:23:01;;;;;;;;;;;2.10;99.90;;;;;;5008282;28;19985;-61
2020/12/29 11:25:28;;;;;;;;;;;2.10;99.90;;;;;;5008211;28;19925;-62
2020/12/29 11:27:53;;;;;;;;;;;2.10;99.90;;;;;;5008153;28;19975;-62
2020/12/29 11:30:19;;;;;;;;;;;2.10;99.90;;;;;;5008081;28;19965;-62
2020/12/29 11:32:45;;;;;;;;;;;2.10;99.90;;;;;;5007923;28;20405;-62
2020/12/29 11:35:10;;;;;;;;;;;2.10;99.90;;;;;;5007825;28;19922;-62
2020/12/29 11:37:36;;;;;;;;;;;2.20;99.90;;;;;;5007911;28;19917;-62
2020/12/29 11:40:03;;;;;;;;;;;2.20;99.90;;;;;;5007866;28;19972;-62
2020/12/29 11:42:28;;;;;;;;;;;2.30;99.90;;;;;;5007871;28;19929;-62
2020/12/29 11:44:54;;;;;;;;;;;2.20;99.90;;;;;;5007733;28;20371;-62
2020/12/29 11:47:20;;;;;;;;;;;2.20;99.90;;;;;;5007496;28;19925;-62
2020/12/29 11:49:45;;;;;;;;;;;2.30;99.90;;;;;;5008033;28;19922;-61
2020/12/29 11:52:11;;;;;;;;;;;2.30;99.90;;;;;;5007473;28;19921;-61
2020/12/29 11:54:37;;;;;;;;;;;2.30;99.90;;;;;;5007598;28;19981;-62
2020/12/29 11:57:02;;;;;;;;;;;2.40;99.90;;;;;;5007566;28;19921;-61
2020/12/29 11:59:28;;;;;;;;;;;2.40;99.90;;;;;;5007586;28;19945;-62
2020/12/29 12:01:54;;;;;;;;;;;2.40;99.90;;;;;;5007620;28;19922;-62
2020/12/29 12:04:19;;;;;;;;;;;2.40;99.90;;;;;;5007650;28;19929;-62
2020/12/29 12:06:46;;;;;;;;;;;2.40;99.90;;;;;;5007281;28;19921;-62
2020/12/29 12:09:12;;;;;;;;;;;2.40;99.90;;;;;;5007533;28;20019;-62
2020/12/29 12:11:38;;;;;;;;;;;2.40;99.90;;;;;;5007415;28;19925;-62
2020/12/29 12:14:04;;;;;;;;;;;2.50;99.90;;;;;;5007405;28;19949;-62
2020/12/29 12:16:36;;;;;;;;;;;2.50;99.90;;;;;;5007261;28;19925;-62
2020/12/29 12:19:01;;;;;;;;;;;2.50;99.90;;;;;;5007327;28;19967;-62
2020/12/29 12:21:28;;;;;;;;;;;2.50;99.90;;;;;;5007297;28;20381;-62
2020/12/29 12:23:54;;;;;;;;;;;2.50;99.90;;;;;;5007149;28;19922;-62
2020/12/29 12:26:20;;;;;;;;;;;2.50;99.90;;;;;;5007209;28;19952;-64
2020/12/29 12:28:46;;;;;;;;;;;2.50;99.90;;;;;;5007126;28;19922;-62
2020/12/29 12:31:12;;;;;;;;;;;2.60;99.90;;;;;;5007052;28;19922;-61
2020/12/29 12:33:37;;;;;;;;;;;2.60;99.90;;;;;;5006998;28;19929;-62
2020/12/29 12:36:03;;;;;;;;;;;2.60;99.90;;;;;;5006935;28;19921;-62
2020/12/29 12:38:29;;;;;;;;;;;2.60;99.90;;;;;;5006729;28;19928;-62
2020/12/29 12:40:54;;;;;;;;;;;2.70;99.90;;;;;;5006807;28;19929;-62
2020/12/29 12:43:20;;;;;;;;;;;2.60;99.90;;;;;;5006740;28;19945;-61
2020/12/29 12:45:47;;;;;;;;;;;2.60;99.90;;;;;;5006693;28;19922;-62
2020/12/29 12:48:12;;;;;;;;;;;2.60;99.90;;;;;;5006100;28;19976;-62
2020/12/29 12:50:38;;;;;;;;;;;2.60;99.90;;;;;;5006684;28;19922;-61
2020/12/29 12:53:04;;;;;;;;;;;2.60;99.90;;;;;;5006767;28;19921;-61
2020/12/29 12:55:29;;;;;;;;;;;2.60;99.90;;;;;;5006791;28;19921;-62
2020/12/29 12:57:55;;;;;;;;;;;2.70;99.90;;;;;;5006642;28;19922;-61
2020/12/29 13:00:21;;;;;;;;;;;2.70;99.90;;;;;;5006745;28;19929;-61
2020/12/29 13:02:46;;;;;;;;;;;2.70;99.90;;;;;;5006622;28;19922;-61
2020/12/29 13:05:15;;;;;;;;;;;2.70;99.90;;;;;;5006616;28;19928;-61
2020/12/29 13:07:41;;;;;;;;;;;2.70;99.90;;;;;;5006525;28;19928;-63
2020/12/29 13:10:06;;;;;;;;;;;2.70;99.90;;;;;;5006341;28;20008;-61
2020/12/29 13:12:32;;;;;;;;;;;;;;;;;;5006558;28;19953;-61
2020/12/29 13:14:58;;;;;;;;;;;2.70;99.90;;;;;;5006521;28;19968;-61
2020/12/29 13:17:24;;;;;;;;;;;2.70;99.90;;;;;;5006524;28;20378;-62
2020/12/29 13:19:49;;;;;;;;;;;2.80;99.90;;;;;;5006658;28;19922;-61
2020/12/29 13:22:15;;;;;;;;;;;2.80;99.90;;;;;;5006516;28;19922;-61
2020/12/29 13:24:41;;;;;;;;;;;2.80;99.90;;;;;;5006288;28;19953;-61
2020/12/29 13:27:07;;;;;;;;;;;2.80;99.90;;;;;;5006614;28;19933;-61
2020/12/29 13:29:32;;;;;;;;;;;2.80;99.90;;;;;;5006427;28;19929;-62
2020/12/29 13:31:58;;;;;;;;;;;2.80;99.90;;;;;;5006414;28;19968;-61
2020/12/29 13:34:24;;;;;;;;;;;2.80;99.90;;;;;;5006329;28;19921;-61
2020/12/29 13:36:49;;;;;;;;;;;2.90;99.90;;;;;;5006456;28;19922;-62
2020/12/29 13:39:15;;;;;;;;;;;2.90;99.90;;;;;;5006438;28;19929;-62
2020/12/29 13:41:41;;;;;;;;;;;2.90;99.90;;;;;;5006316;28;19929;-63
2020/12/29 13:44:06;;;;;;;;;;;2.90;99.90;;;;;;5006290;28;19945;-62
2020/12/29 13:46:32;;;;;;;;;;;3.00;99.90;;;;;;5006154;28;19932;-62
2020/12/29 13:48:57;;;;;;;;;;;3.00;99.90;;;;;;5006004;28;19945;-62
2020/12/29 13:51:23;;;;;;;;;;;3.00;99.90;;;;;;5006143;28;19922;-61
2020/12/29 13:53:49;;;;;;;;;;;3.00;99.90;;;;;;5005987;28;19957;-61
2020/12/29 13:56:15;;;;;;;;;;;3.00;99.90;;;;;;5006256;28;20371;-61
2020/12/29 13:58:41;;;;;;;;;;;3.00;99.90;;;;;;5007977;28;19922;-61
2020/12/29 14:01:09;;;;;;;;;;;3.10;99.90;;;;;;5009605;28;19925;-61
2020/12/29 14:03:35;;;;;;;;;;;3.10;99.90;;;;;;5009548;28;19922;-61
2020/12/29 14:06:00;;;;;;;;;;;3.10;99.90;;;;;;5009604;28;19945;-61
2020/12/29 14:08:26;;;;;;;;;;;3.10;99.90;;;;;;5009598;28;19928;-61
2020/12/29 14:10:52;;;;;;;;;;;3.10;99.90;;;;;;5009604;28;20270;-61
2020/12/29 14:13:17;;;;;;;;;;;3.10;99.90;;;;;;5009505;28;20338;-61
2020/12/29 14:15:43;;;;;;;;;;;3.20;99.90;;;;;;5009396;28;20365;-61
2020/12/29 14:18:09;;;;;;;;;;;3.20;99.90;;;;;;5009334;28;20305;-61
2020/12/29 14:20:34;;;;;;;;;;;3.30;99.90;;;;;;5009373;28;19929;-61
2020/12/29 14:23:00;;;;;;;;;;;3.30;99.90;;;;;;5009299;28;20369;-61
2020/12/29 14:25:26;;;;;;;;;;;3.20;99.90;;;;;;5009327;28;19932;-61
2020/12/29 14:27:52;;;;;;;;;;;3.30;99.90;;;;;;5009254;28;19922;-61